Time;durP1;ratioP1;P1;durP2;ratioP2;P2;SDS_P1;SDS_P2;PMS_P1;PMS_P2;Temp;Humidity;BMP_temperature;BMP_pressure;BME280_temperature;BME280_humidity;BME280_pressure;Samples;Min_cycle;Max_cycle;Signal;HPM_P1;HPM_P2
2023/06/28 00:01:11;;;;;;;3.05;1.85;;;;;;;;;;6218082;28;20050;-84
2023/06/28 00:04:13;;;;;;;2.70;1.77;;;;;;;;;;6207432;28;20050;-83
2023/06/28 00:07:16;;;;;;;4.72;1.80;;;;;;;;;;6221497;28;20057;-83
2023/06/28 00:10:17;;;;;;;2.33;1.90;;;;;;;;;;6206936;28;20056;-83
2023/06/28 00:13:19;;;;;;;3.50;1.95;;;;;;;;;;6188861;28;20453;-83
2023/06/28 00:16:21;;;;;;;3.08;1.60;;;;;;;;;;6217852;28;20105;-83
2023/06/28 00:19:26;;;;;;;3.78;1.90;;;;;;;;;;6220120;28;20110;-84
2023/06/28 00:22:31;;;;;;;3.25;2.13;;;;;;;;;;6200489;28;20046;-83
2023/06/28 00:25:32;;;;;;;3.20;2.08;;;;;;;;;;6200355;28;20049;-83
2023/06/28 00:28:34;;;;;;;3.10;1.73;;;;;;;;;;6218025;28;20042;-83
2023/06/28 00:31:36;;;;;;;3.42;1.70;;;;;;;;;;6220346;28;20045;-83
2023/06/28 00:34:38;;;;;;;4.28;1.80;;;;;;;;;;6218935;28;20050;-83
2023/06/28 00:37:41;;;;;;;3.78;2.00;;;;;;;;;;6201000;28;20053;-83
2023/06/28 00:40:43;;;;;;;4.65;1.90;;;;;;;;;;6200319;28;20078;-83
2023/06/28 00:43:45;;;;;;;6.90;2.00;;;;;;;;;;6200772;28;20056;-83
2023/06/28 00:46:48;;;;;;;4.82;2.17;;;;;;;;;;6200951;28;20920;-83
2023/06/28 00:49:53;;;;;;;3.60;1.90;;;;;;;;;;6220653;28;20046;-84
2023/06/28 00:52:54;;;;;;;2.13;1.92;;;;;;;;;;6203740;28;20506;-83
2023/06/28 00:55:57;;;;;;;2.78;1.90;;;;;;;;;;6187986;28;20053;-83
2023/06/28 00:59:00;;;;;;;3.88;2.10;;;;;;;;;;6222107;28;20053;-82
2023/06/28 01:02:03;;;;;;;5.93;2.38;;;;;;;;;;6203234;28;20052;-83
2023/06/28 01:05:05;;;;;;;2.58;1.80;;;;;;;;;;6223716;28;20465;-84
2023/06/28 01:08:07;;;;;;;5.07;1.98;;;;;;;;;;6214483;28;20042;-83
2023/06/28 01:11:11;;;;;;;3.53;2.08;;;;;;;;;;6219628;28;20046;-83
2023/06/28 01:14:13;;;;;;;3.45;1.90;;;;;;;;;;6223669;28;20053;-82
2023/06/28 01:17:15;;;;;;;3.90;2.15;;;;;;;;;;6202056;28;20054;-82
2023/06/28 01:20:17;;;;;;;4.93;2.00;;;;;;;;;;6220064;28;20117;-84
2023/06/28 01:23:18;;;;;;;3.55;2.22;;;;;;;;;;6221142;28;20100;-83
2023/06/28 01:26:20;;;;;;;3.95;2.10;;;;;;;;;;6212893;28;20053;-84
2023/06/28 01:29:23;;;;;;;3.92;2.38;;;;;;;;;;6225413;28;20046;-85
2023/06/28 01:32:24;;;;;;;3.83;2.13;;;;;;;;;;6178682;28;20488;-82
2023/06/28 01:35:28;;;;;;;3.72;2.30;;;;;;;;;;6204973;28;20448;-84
2023/06/28 01:38:31;;;;;;;2.85;2.08;;;;;;;;;;6201703;28;20046;-83
2023/06/28 01:41:33;;;;;;;3.05;2.00;;;;;;;;;;6205228;28;20046;-82
2023/06/28 01:44:35;;;;;;;2.28;1.88;;;;;;;;;;6213718;28;20098;-82
2023/06/28 01:47:38;;;;;;;2.35;1.95;;;;;;;;;;6201339;28;20656;-83
2023/06/28 01:50:40;;;;;;;3.40;2.30;;;;;;;;;;6203400;28;20058;-83
2023/06/28 01:53:43;;;;;;;3.38;2.40;;;;;;;;;;6199318;28;20128;-84
2023/06/28 01:56:44;;;;;;;3.70;2.33;;;;;;;;;;6203781;28;20076;-83
2023/06/28 01:59:46;;;;;;;3.70;2.40;;;;;;;;;;6211592;28;20134;-82
2023/06/28 02:02:48;;;;;;;4.45;2.42;;;;;;;;;;6225060;28;20049;-82
2023/06/28 02:05:50;;;;;;;3.67;2.40;;;;;;;;;;6216296;28;20057;-83
2023/06/28 02:08:52;;;;;;;2.47;2.28;;;;;;;;;;6212629;28;20062;-85
2023/06/28 02:11:54;;;;;;;5.30;2.40;;;;;;;;;;6216669;28;20055;-83
2023/06/28 02:14:57;;;;;;;2.25;2.05;;;;;;;;;;6200571;28;20111;-83
2023/06/28 02:17:59;;;;;;;4.65;2.90;;;;;;;;;;6204243;28;20041;-83
2023/06/28 02:21:01;;;;;;;2.78;2.30;;;;;;;;;;6200419;28;20591;-83
2023/06/28 02:24:03;;;;;;;5.65;2.72;;;;;;;;;;6178991;28;20060;-83
2023/06/28 02:27:05;;;;;;;4.93;2.30;;;;;;;;;;6199950;28;20042;-83
2023/06/28 02:30:07;;;;;;;2.97;2.10;;;;;;;;;;6199359;28;20424;-83
2023/06/28 02:33:09;;;;;;;4.25;2.15;;;;;;;;;;6208472;28;20049;-85
2023/06/28 02:36:11;;;;;;;2.55;2.17;;;;;;;;;;6220657;28;20042;-86
2023/06/28 02:39:16;;;;;;;3.50;2.33;;;;;;;;;;6219144;28;20102;-83
2023/06/28 02:42:18;;;;;;;3.72;2.15;;;;;;;;;;6208926;28;20061;-83
2023/06/28 02:45:19;;;;;;;2.65;2.13;;;;;;;;;;6200707;28;20092;-85
2023/06/28 02:48:22;;;;;;;3.60;2.10;;;;;;;;;;6220310;28;20045;-83
2023/06/28 02:51:24;;;;;;;3.53;2.47;;;;;;;;;;6204259;28;20065;-85
2023/06/28 02:54:26;;;;;;;3.90;2.42;;;;;;;;;;6204107;28;20178;-83
2023/06/28 02:57:28;;;;;;;2.90;2.08;;;;;;;;;;6205284;28;20046;-85
2023/06/28 03:00:39;;;;;;;5.35;2.55;;;;;;;;;;6194223;28;20054;-83
2023/06/28 03:03:41;;;;;;;2.72;2.10;;;;;;;;;;6204980;28;20097;-84
2023/06/28 03:06:48;;;;;;;2.92;2.03;;;;;;;;;;6221779;28;20121;-83
2023/06/28 03:09:49;;;;;;;4.05;2.50;;;;;;;;;;6218336;28;20054;-82
2023/06/28 03:12:52;;;;;;;3.50;2.65;;;;;;;;;;6201826;28;20034;-84
2023/06/28 03:15:54;;;;;;;2.33;2.00;;;;;;;;;;6215272;28;20049;-84
2023/06/28 03:18:59;;;;;;;3.70;2.30;;;;;;;;;;6202270;28;20049;-83
2023/06/28 03:22:02;;;;;;;4.07;2.60;;;;;;;;;;6218573;28;20047;-85
2023/06/28 03:25:05;;;;;;;5.00;2.80;;;;;;;;;;6204296;28;20077;-84
2023/06/28 03:28:07;;;;;;;2.63;2.40;;;;;;;;;;6200691;28;20120;-86
2023/06/28 03:31:10;;;;;;;3.95;2.40;;;;;;;;;;6177835;28;21639;-83
2023/06/28 03:34:13;;;;;;;2.83;2.25;;;;;;;;;;6213999;28;20042;-83
2023/06/28 03:37:18;;;;;;;3.25;2.08;;;;;;;;;;6176989;28;20052;-85
2023/06/28 03:40:20;;;;;;;5.05;2.58;;;;;;;;;;6193615;28;20041;-84
2023/06/28 03:43:22;;;;;;;4.57;2.83;;;;;;;;;;6192017;28;20041;-85
2023/06/28 03:46:23;;;;;;;2.65;2.45;;;;;;;;;;6187734;28;20439;-84
2023/06/28 03:49:25;;;;;;;3.00;2.30;;;;;;;;;;6195381;28;20244;-84
2023/06/28 03:52:27;;;;;;;3.83;2.42;;;;;;;;;;6171122;28;20068;-83
2023/06/28 03:55:29;;;;;;;5.03;2.60;;;;;;;;;;6195295;28;20526;-82
2023/06/28 03:58:31;;;;;;;4.55;2.35;;;;;;;;;;6186485;28;20043;-84
2023/06/28 04:01:33;;;;;;;3.58;2.20;;;;;;;;;;6188602;28;20107;-83
2023/06/28 04:04:35;;;;;;;4.07;2.65;;;;;;;;;;6186924;28;20042;-82
2023/06/28 04:07:37;;;;;;;6.65;2.63;;;;;;;;;;6208881;28;20046;-83
2023/06/28 04:10:39;;;;;;;5.88;2.60;;;;;;;;;;6193367;28;20058;-84
2023/06/28 04:13:42;;;;;;;2.60;2.00;;;;;;;;;;6203802;28;20125;-84
2023/06/28 04:16:43;;;;;;;4.70;2.50;;;;;;;;;;6208476;28;20057;-82
2023/06/28 04:19:45;;;;;;;4.30;2.45;;;;;;;;;;6193819;28;20475;-81
2023/06/28 04:22:47;;;;;;;3.55;2.55;;;;;;;;;;6187799;28;20492;-83
2023/06/28 04:25:49;;;;;;;4.97;2.55;;;;;;;;;;6209149;28;20054;-82
2023/06/28 04:28:50;;;;;;;3.53;2.47;;;;;;;;;;6198549;28;20050;-82
2023/06/28 04:31:52;;;;;;;3.63;2.20;;;;;;;;;;6208883;28;20038;-83
2023/06/28 04:34:59;;;;;;;2.80;2.23;;;;;;;;;;6206812;28;20145;-83
2023/06/28 04:38:04;;;;;;;4.50;2.53;;;;;;;;;;6196583;28;20038;-83
2023/06/28 04:41:06;;;;;;;4.68;2.30;;;;;;;;;;6200818;28;20046;-84
2023/06/28 04:44:09;;;;;;;4.78;2.42;;;;;;;;;;6202840;28;20054;-81
2023/06/28 04:47:15;;;;;;;3.35;2.40;;;;;;;;;;6194601;28;20435;-83
2023/06/28 04:50:17;;;;;;;3.33;2.53;;;;;;;;;;6188501;28;20042;-83
2023/06/28 04:53:19;;;;;;;5.22;2.67;;;;;;;;;;6203397;28;20115;-83
2023/06/28 04:56:21;;;;;;;4.03;2.53;;;;;;;;;;6209985;28;20052;-82
2023/06/28 04:59:23;;;;;;;3.75;2.80;;;;;;;;;;6199069;28;20057;-83
2023/06/28 05:02:25;;;;;;;4.28;2.67;;;;;;;;;;6207584;28;20038;-82
2023/06/28 05:05:28;;;;;;;4.13;2.67;;;;;;;;;;6209529;28;20140;-80
2023/06/28 05:08:30;;;;;;;4.72;2.85;;;;;;;;;;6204258;28;20050;-80
2023/06/28 05:11:32;;;;;;;3.83;3.33;;;;;;;;;;6186221;28;20057;-80
2023/06/28 05:14:33;;;;;;;5.60;3.90;;;;;;;;;;6199050;28;20080;-81
2023/06/28 05:17:35;;;;;;;7.97;2.73;;;;;;;;;;6212912;28;20057;-81
2023/06/28 05:20:37;;;;;;;4.28;2.45;;;;;;;;;;6181739;28;20037;-81
2023/06/28 05:23:39;;;;;;;7.15;2.67;;;;;;;;;;6181877;28;20046;-84
2023/06/28 05:26:41;;;;;;;5.15;2.50;;;;;;;;;;6189732;28;20054;-82
2023/06/28 05:29:43;;;;;;;6.20;2.85;;;;;;;;;;6194489;28;20731;-81
2023/06/28 05:32:45;;;;;;;5.85;2.35;;;;;;;;;;6194607;28;20048;-81
2023/06/28 05:35:47;;;;;;;4.70;2.97;;;;;;;;;;6190535;28;20133;-81
2023/06/28 05:38:49;;;;;;;5.43;2.67;;;;;;;;;;6191275;28;20045;-81
2023/06/28 05:41:51;;;;;;;2.70;2.50;;;;;;;;;;6188114;28;20046;-80
2023/06/28 05:44:54;;;;;;;6.07;2.78;;;;;;;;;;6206314;28;20046;-84
2023/06/28 05:47:58;;;;;;;3.75;2.60;;;;;;;;;;6205417;28;20111;-83
2023/06/28 05:51:00;;;;;;;4.70;2.70;;;;;;;;;;6200621;28;20486;-81
2023/06/28 05:54:02;;;;;;;5.05;2.97;;;;;;;;;;6204989;28;20050;-82
2023/06/28 05:57:04;;;;;;;6.03;2.67;;;;;;;;;;6174780;28;20595;-82
2023/06/28 06:00:09;;;;;;;6.50;2.53;;;;;;;;;;6185749;28;20042;-85
2023/06/28 06:03:10;;;;;;;8.63;2.40;;;;;;;;;;6193857;28;20054;-82
2023/06/28 06:06:12;;;;;;;4.57;2.45;;;;;;;;;;6191548;28;20053;-82
2023/06/28 06:09:14;;;;;;;4.72;2.25;;;;;;;;;;6192875;28;20533;-82
2023/06/28 06:12:17;;;;;;;4.35;2.70;;;;;;;;;;6192634;28;20046;-82
2023/06/28 06:15:19;;;;;;;5.07;2.50;;;;;;;;;;6197844;28;20137;-82
2023/06/28 06:18:20;;;;;;;4.78;2.50;;;;;;;;;;6206283;28;20846;-83
2023/06/28 06:21:22;;;;;;;8.23;2.45;;;;;;;;;;6213423;28;20038;-82
2023/06/28 06:24:24;;;;;;;4.80;2.60;;;;;;;;;;6204751;28;20085;-82
2023/06/28 06:27:29;;;;;;;3.95;2.15;;;;;;;;;;6199892;28;20118;-82
2023/06/28 06:30:30;;;;;;;7.18;2.72;;;;;;;;;;6198106;28;20152;-84
2023/06/28 06:33:35;;;;;;;4.73;2.10;;;;;;;;;;6193691;28;20052;-84
2023/06/28 06:36:37;;;;;;;4.97;2.65;;;;;;;;;;6202672;28;20077;-83
2023/06/28 06:39:40;;;;;;;9.32;2.60;;;;;;;;;;6205992;28;20054;-85
2023/06/28 06:42:42;;;;;;;3.75;2.45;;;;;;;;;;6182344;28;20049;-85
2023/06/28 06:45:44;;;;;;;4.65;2.47;;;;;;;;;;6202330;28;20038;-85
2023/06/28 06:48:47;;;;;;;3.45;1.98;;;;;;;;;;6192591;28;20125;-82
2023/06/28 06:51:49;;;;;;;3.97;2.17;;;;;;;;;;6174770;28;20421;-82
2023/06/28 06:54:50;;;;;;;6.63;2.30;;;;;;;;;;6187209;28;20497;-81
2023/06/28 06:57:52;;;;;;;4.03;2.30;;;;;;;;;;6209418;28;20053;-82
2023/06/28 07:00:54;;;;;;;3.03;2.22;;;;;;;;;;6205726;28;20049;-82
2023/06/28 07:03:56;;;;;;;6.78;2.15;;;;;;;;;;6191231;28;20053;-82
2023/06/28 07:06:58;;;;;;;5.18;2.20;;;;;;;;;;6210155;28;20059;-86
2023/06/28 07:09:59;;;;;;;8.20;2.50;;;;;;;;;;6188442;28;20100;-83
2023/06/28 07:13:01;;;;;;;5.10;2.10;;;;;;;;;;6200242;28;20045;-83
2023/06/28 07:16:03;;;;;;;6.30;2.13;;;;;;;;;;6196948;28;20425;-82
2023/06/28 07:19:06;;;;;;;6.72;2.75;;;;;;;;;;6211290;28;20477;-82
2023/06/28 07:22:08;;;;;;;6.97;2.25;;;;;;;;;;6193409;28;20841;-82
2023/06/28 07:25:10;;;;;;;4.55;2.30;;;;;;;;;;6189004;28;20412;-81
2023/06/28 07:28:11;;;;;;;4.57;2.30;;;;;;;;;;6184502;28;20046;-82
2023/06/28 07:31:13;;;;;;;5.90;2.30;;;;;;;;;;6194396;28;20117;-81
2023/06/28 07:34:15;;;;;;;5.85;2.25;;;;;;;;;;6191320;28;20050;-81
2023/06/28 07:37:17;;;;;;;6.47;2.50;;;;;;;;;;6178574;28;20054;-81
2023/06/28 07:40:19;;;;;;;2.33;2.03;;;;;;;;;;6183209;28;20085;-81
2023/06/28 07:43:21;;;;;;;2.75;2.05;;;;;;;;;;6187047;28;20459;-81
2023/06/28 07:46:22;;;;;;;6.53;2.30;;;;;;;;;;6191283;28;20053;-83
2023/06/28 07:49:24;;;;;;;6.95;2.15;;;;;;;;;;6187482;28;20524;-82
2023/06/28 07:52:26;;;;;;;5.68;2.28;;;;;;;;;;6189523;28;20133;-81
2023/06/28 07:55:28;;;;;;;8.10;2.40;;;;;;;;;;6198251;28;20045;-81
2023/06/28 07:58:29;;;;;;;6.87;2.30;;;;;;;;;;6196482;28;20041;-79
2023/06/28 08:01:33;;;;;;;9.32;2.30;;;;;;;;;;6201233;28;20441;-80
2023/06/28 08:04:35;;;;;;;4.13;2.03;;;;;;;;;;6171915;28;20046;-79
2023/06/28 08:07:40;;;;;;;4.95;1.98;;;;;;;;;;6182183;28;20085;-79
2023/06/28 08:10:42;;;;;;;5.97;2.10;;;;;;;;;;6196130;28;20122;-78
2023/06/28 08:13:44;;;;;;;7.85;2.25;;;;;;;;;;6200866;28;20046;-79
2023/06/28 08:16:45;;;;;;;5.20;2.05;;;;;;;;;;6191767;28;20840;-79
2023/06/28 08:19:47;;;;;;;6.78;2.10;;;;;;;;;;6191345;28;20052;-79
2023/06/28 08:22:49;;;;;;;7.68;2.35;;;;;;;;;;6179270;28;20162;-79
2023/06/28 08:25:51;;;;;;;10.38;2.00;;;;;;;;;;6201068;28;20046;-81
2023/06/28 08:28:52;;;;;;;5.80;2.40;;;;;;;;;;6170053;28;20420;-80
2023/06/28 08:32:02;;;;;;;8.32;2.40;;;;;;;;;;6177668;28;20052;-81
2023/06/28 08:35:04;;;;;;;4.60;2.53;;;;;;;;;;6186750;28;20042;-84
2023/06/28 08:38:06;;;;;;;5.95;2.00;;;;;;;;;;6205442;28;20532;-82
2023/06/28 08:41:08;;;;;;;7.75;2.75;;;;;;;;;;6194363;28;20042;-81
2023/06/28 08:44:13;;;;;;;4.95;1.85;;;;;;;;;;6208480;28;20529;-84
2023/06/28 08:47:15;;;;;;;4.78;1.98;;;;;;;;;;6208012;28;20047;-83
2023/06/28 08:50:21;;;;;;;4.75;2.10;;;;;;;;;;6208531;28;20046;-83
2023/06/28 08:53:25;;;;;;;3.88;1.85;;;;;;;;;;6190727;28;20046;-81
2023/06/28 08:56:30;;;;;;;5.35;1.90;;;;;;;;;;6198004;28;20492;-80
2023/06/28 08:59:32;;;;;;;4.55;1.70;;;;;;;;;;6192709;28;20120;-80
2023/06/28 09:02:35;;;;;;;4.33;1.93;;;;;;;;;;6193501;28;20042;-79
2023/06/28 09:05:39;;;;;;;6.95;2.10;;;;;;;;;;6202715;28;20491;-78
2023/06/28 09:08:43;;;;;;;4.65;1.90;;;;;;;;;;6194942;28;20148;-77
2023/06/28 09:11:46;;;;;;;4.43;1.95;;;;;;;;;;6200271;28;20520;-76
2023/06/28 09:14:49;;;;;;;5.78;1.80;;;;;;;;;;6184143;28;20108;-77
2023/06/28 09:17:50;;;;;;;5.07;1.70;;;;;;;;;;6199918;28;20049;-77
2023/06/28 09:20:53;;;;;;;4.90;2.20;;;;;;;;;;6166777;28;20057;-77
2023/06/28 09:23:55;;;;;;;5.80;1.95;;;;;;;;;;6181470;28;20050;-78
2023/06/28 09:27:01;;;;;;;2.85;2.17;;;;;;;;;;6200668;28;20057;-76
2023/06/28 09:30:04;;;;;;;4.65;2.15;;;;;;;;;;6182216;28;20057;-78
2023/06/28 09:33:05;;;;;;;2.40;1.80;;;;;;;;;;6197451;28;20155;-77
2023/06/28 09:36:10;;;;;;;2.53;1.87;;;;;;;;;;6180160;28;20045;-80
2023/06/28 09:39:12;;;;;;;5.32;2.00;;;;;;;;;;6187996;28;20643;-79
2023/06/28 09:42:14;;;;;;;6.50;2.10;;;;;;;;;;6204850;28;20043;-79
2023/06/28 09:45:25;;;;;;;3.28;1.70;;;;;;;;;;6190441;28;20050;-79
2023/06/28 09:48:35;;;;;;;6.43;2.30;;;;;;;;;;6206886;28;20617;-81
2023/06/28 09:51:37;;;;;;;6.80;2.10;;;;;;;;;;6195454;28;20046;-81
2023/06/28 09:54:44;;;;;;;7.70;1.95;;;;;;;;;;6194562;28;20236;-82
2023/06/28 09:57:48;;;;;;;7.25;2.05;;;;;;;;;;6210764;28;20724;-82
2023/06/28 10:00:50;;;;;;;5.00;2.00;;;;;;;;;;6208757;28;20061;-81
2023/06/28 10:03:52;;;;;;;4.22;1.50;;;;;;;;;;6210057;28;20045;-80
2023/06/28 10:07:00;;;;;;;5.03;2.08;;;;;;;;;;6196433;28;20133;-81
2023/06/28 10:10:03;;;;;;;2.35;1.20;;;;;;;;;;6196087;28;20053;-81
2023/06/28 10:13:26;;;;;;;3.78;1.38;;;;;;;;;;6202851;28;20053;-81
2023/06/28 10:16:31;;;;;;;1.30;1.13;;;;;;;;;;6215661;28;20058;-80
2023/06/28 10:19:33;;;;;;;1.92;1.30;;;;;;;;;;6200438;28;20048;-81
2023/06/28 10:22:37;;;;;;;2.90;1.30;;;;;;;;;;6210500;28;20069;-83
2023/06/28 10:25:41;;;;;;;4.47;1.38;;;;;;;;;;6208389;28;20046;-82
2023/06/28 10:28:48;;;;;;;2.78;1.52;;;;;;;;;;6202035;28;20049;-83
2023/06/28 10:31:51;;;;;;;5.30;1.77;;;;;;;;;;6172196;28;20053;-84
2023/06/28 10:34:54;;;;;;;3.08;1.45;;;;;;;;;;6205808;28;20115;-84
2023/06/28 10:38:00;;;;;;;7.75;2.00;;;;;;;;;;6214522;28;20049;-83
2023/06/28 10:41:05;;;;;;;1.95;1.30;;;;;;;;;;6187358;28;20053;-83
2023/06/28 10:44:07;;;;;;;2.83;1.40;;;;;;;;;;6202506;28;20038;-83
2023/06/28 10:47:13;;;;;;;2.92;1.40;;;;;;;;;;6208155;28;20073;-83
2023/06/28 10:50:20;;;;;;;3.55;1.60;;;;;;;;;;6201797;28;20181;-83
2023/06/28 10:53:27;;;;;;;5.63;1.70;;;;;;;;;;6193525;28;20045;-81
2023/06/28 10:56:38;;;;;;;3.65;1.60;;;;;;;;;;6189051;28;20046;-80
2023/06/28 10:59:45;;;;;;;3.38;1.70;;;;;;;;;;6215432;28;20042;-82
2023/06/28 11:02:56;;;;;;;3.70;1.60;;;;;;;;;;6211731;28;20056;-81
2023/06/28 11:05:58;;;;;;;2.92;1.50;;;;;;;;;;6195177;28;20046;-81
2023/06/28 11:09:13;;;;;;;7.45;1.50;;;;;;;;;;6175899;28;20050;-82
2023/06/28 11:12:18;;;;;;;3.75;1.25;;;;;;;;;;6197117;28;20230;-80
2023/06/28 11:15:28;;;;;;;2.28;1.40;;;;;;;;;;6210598;28;20050;-82
2023/06/28 11:18:30;;;;;;;2.80;1.40;;;;;;;;;;6194895;28;20061;-82
2023/06/28 11:21:32;;;;;;;2.53;1.30;;;;;;;;;;6192701;28;20097;-80
2023/06/28 11:24:37;;;;;;;3.67;1.50;;;;;;;;;;6184855;28;20061;-79
2023/06/28 11:27:40;;;;;;;1.70;1.30;;;;;;;;;;6209023;28;20038;-80
2023/06/28 11:30:51;;;;;;;2.55;1.38;;;;;;;;;;6213909;28;20121;-81
2023/06/28 11:33:57;;;;;;;2.72;1.40;;;;;;;;;;6215359;28;20128;-80
2023/06/28 11:37:00;;;;;;;1.92;1.52;;;;;;;;;;6200702;28;20488;-79
2023/06/28 11:40:03;;;;;;;2.05;1.40;;;;;;;;;;6208129;28;20038;-79
2023/06/28 11:43:05;;;;;;;1.83;1.27;;;;;;;;;;6198572;28;20042;-80
2023/06/28 11:46:07;;;;;;;1.90;1.30;;;;;;;;;;6206808;28;20109;-80
2023/06/28 11:49:08;;;;;;;2.50;1.27;;;;;;;;;;6195901;28;20513;-81
2023/06/28 11:52:10;;;;;;;4.10;1.70;;;;;;;;;;6211863;28;20046;-79
2023/06/28 11:55:16;;;;;;;5.35;1.45;;;;;;;;;;6192927;28;20523;-80
2023/06/28 11:58:35;;;;;;;2.50;1.33;;;;;;;;;;6211123;28;20054;-80
2023/06/28 12:01:37;;;;;;;3.28;1.20;;;;;;;;;;6212744;28;20085;-83
2023/06/28 12:04:39;;;;;;;4.45;1.50;;;;;;;;;;6194344;28;20061;-84
2023/06/28 12:07:41;;;;;;;3.28;1.60;;;;;;;;;;6210376;28;20045;-83
2023/06/28 12:10:43;;;;;;;3.13;1.60;;;;;;;;;;6205535;28;20619;-83
2023/06/28 12:13:45;;;;;;;4.30;1.55;;;;;;;;;;6218685;28;20038;-84
2023/06/28 12:16:47;;;;;;;3.53;1.40;;;;;;;;;;6203919;28;20060;-80
2023/06/28 12:19:49;;;;;;;;;;;;;;;;;;6194035;28;20448;-80
2023/06/28 12:22:54;;;;;;;2.88;1.40;;;;;;;;;;6193904;28;19922;-81
2023/06/28 12:25:59;;;;;;;2.90;1.40;;;;;;;;;;6208923;28;20543;-80
2023/06/28 12:29:00;;;;;;;2.00;1.50;;;;;;;;;;6213941;28;20042;-85
2023/06/28 12:32:06;;;;;;;2.97;1.40;;;;;;;;;;6210114;28;20049;-87
2023/06/28 12:35:21;;;;;;;3.22;1.58;;;;;;;;;;6200839;28;20137;-82
2023/06/28 12:38:30;;;;;;;2.47;1.30;;;;;;;;;;6194160;28;20068;-85
2023/06/28 12:41:32;;;;;;;2.15;1.50;;;;;;;;;;6211428;28;20042;-84
2023/06/28 12:44:54;;;;;;;3.55;1.60;;;;;;;;;;6197249;28;20065;-84
2023/06/28 12:47:56;;;;;;;2.13;1.52;;;;;;;;;;6164939;28;20038;-85
2023/06/28 12:50:58;;;;;;;3.23;1.80;;;;;;;;;;6188512;28;20054;-87
2023/06/28 12:53:59;;;;;;;2.50;1.75;;;;;;;;;;6184553;28;20053;-87
2023/06/28 12:57:03;;;;;;;3.73;1.67;;;;;;;;;;6181490;28;20050;-86
2023/06/28 13:00:05;;;;;;;4.47;1.60;;;;;;;;;;6196623;28;20042;-85
2023/06/28 13:03:08;;;;;;;1.75;1.50;;;;;;;;;;6212444;28;20053;-86
2023/06/28 13:06:09;;;;;;;;;;;;;;;;;;6201151;28;20057;-85
2023/06/28 13:09:12;;;;;;;2.70;1.73;;;;;;;;;;6209689;28;19921;-84
2023/06/28 13:12:14;;;;;;;4.38;1.38;;;;;;;;;;6216141;28;20046;-84
2023/06/28 13:15:15;;;;;;;2.22;1.33;;;;;;;;;;6211829;28;20092;-83
2023/06/28 13:18:17;;;;;;;5.17;1.80;;;;;;;;;;6198376;28;20030;-85
2023/06/28 13:21:19;;;;;;;3.03;1.30;;;;;;;;;;6205382;28;20053;-86
2023/06/28 13:24:25;;;;;;;3.50;1.50;;;;;;;;;;6187820;28;20049;-87
2023/06/28 13:27:27;;;;;;;2.55;1.50;;;;;;;;;;6200120;28;20081;-85
2023/06/28 13:30:28;;;;;;;2.25;1.50;;;;;;;;;;6214596;28;20054;-85
2023/06/28 13:33:32;;;;;;;1.98;1.30;;;;;;;;;;6216802;28;20086;-87
2023/06/28 13:36:34;;;;;;;2.67;1.50;;;;;;;;;;6198211;28;20061;-84
2023/06/28 13:39:35;;;;;;;1.42;1.20;;;;;;;;;;6207625;28;20046;-84
2023/06/28 13:42:37;;;;;;;2.88;1.60;;;;;;;;;;6185669;28;20046;-82
2023/06/28 13:45:40;;;;;;;3.20;1.70;;;;;;;;;;6188851;28;20486;-82
2023/06/28 13:48:42;;;;;;;2.47;1.40;;;;;;;;;;6183660;28;20054;-83
2023/06/28 13:51:43;;;;;;;4.40;1.40;;;;;;;;;;6209307;28;20049;-86
2023/06/28 13:54:45;;;;;;;2.63;1.30;;;;;;;;;;6191484;28;20050;-85
2023/06/28 13:57:47;;;;;;;2.63;1.30;;;;;;;;;;6210894;28;20544;-86
2023/06/28 14:00:48;;;;;;;3.50;1.42;;;;;;;;;;6180251;28;20046;-87
2023/06/28 14:03:50;;;;;;;2.20;1.38;;;;;;;;;;6194638;28;20070;-84
2023/06/28 14:06:52;;;;;;;3.83;1.40;;;;;;;;;;6207996;28;20042;-85
2023/06/28 14:09:54;;;;;;;4.40;1.40;;;;;;;;;;6192837;28;20112;-84
2023/06/28 14:12:56;;;;;;;1.60;1.20;;;;;;;;;;6210740;28;20057;-86
2023/06/28 14:15:58;;;;;;;2.50;1.40;;;;;;;;;;6207646;28;20042;-85
2023/06/28 14:18:59;;;;;;;2.55;1.10;;;;;;;;;;6211434;28;20054;-87
2023/06/28 14:22:01;;;;;;;2.35;1.05;;;;;;;;;;6197103;28;20083;-83
2023/06/28 14:25:05;;;;;;;1.80;1.17;;;;;;;;;;6194528;28;20046;-84
2023/06/28 14:28:06;;;;;;;1.52;1.00;;;;;;;;;;6215121;28;20060;-85
2023/06/28 14:31:10;;;;;;;3.05;1.00;;;;;;;;;;6213207;28;20046;-84
2023/06/28 14:34:11;;;;;;;3.15;1.20;;;;;;;;;;6217431;28;20052;-84
2023/06/28 14:37:13;;;;;;;1.92;1.00;;;;;;;;;;6217577;28;20092;-84
2023/06/28 14:40:15;;;;;;;2.03;1.30;;;;;;;;;;6195116;28;20053;-87
2023/06/28 14:43:17;;;;;;;2.03;0.90;;;;;;;;;;6210603;28;20050;-84
2023/06/28 14:46:19;;;;;;;1.65;1.10;;;;;;;;;;6209121;28;20054;-84
2023/06/28 14:49:21;;;;;;;1.95;1.10;;;;;;;;;;6201702;28;20041;-85
2023/06/28 14:52:23;;;;;;;1.63;1.15;;;;;;;;;;6212259;28;20045;-83
2023/06/28 14:55:25;;;;;;;2.28;1.05;;;;;;;;;;6191702;28;20416;-83
2023/06/28 14:58:26;;;;;;;1.17;0.90;;;;;;;;;;6206845;28;20058;-85
2023/06/28 15:01:28;;;;;;;1.58;0.90;;;;;;;;;;6202026;28;20662;-85
2023/06/28 15:04:30;;;;;;;2.47;1.00;;;;;;;;;;6200367;28;20062;-84
2023/06/28 15:07:31;;;;;;;2.85;1.20;;;;;;;;;;6180966;28;20042;-84
2023/06/28 15:10:33;;;;;;;1.75;0.90;;;;;;;;;;6221957;28;20103;-83
2023/06/28 15:13:35;;;;;;;1.98;1.00;;;;;;;;;;6218999;28;20092;-85
2023/06/28 15:16:37;;;;;;;1.10;0.73;;;;;;;;;;6186548;28;20128;-87
2023/06/28 15:19:39;;;;;;;2.00;1.15;;;;;;;;;;6217949;28;20053;-83
2023/06/28 15:22:40;;;;;;;1.65;1.20;;;;;;;;;;6217375;28;20046;-84
2023/06/28 15:25:42;;;;;;;2.47;1.00;;;;;;;;;;6201389;28;20038;-83
2023/06/28 15:28:44;;;;;;;1.60;1.05;;;;;;;;;;6217997;28;20038;-83
2023/06/28 15:31:46;;;;;;;3.05;1.55;;;;;;;;;;6211961;28;20117;-84
2023/06/28 15:34:48;;;;;;;3.35;1.02;;;;;;;;;;6215783;28;20109;-83
2023/06/28 15:37:50;;;;;;;2.50;1.13;;;;;;;;;;6199683;28;20046;-86
2023/06/28 15:40:52;;;;;;;0.98;0.90;;;;;;;;;;6197697;28;20046;-86
2023/06/28 15:43:53;;;;;;;1.65;1.27;;;;;;;;;;6212094;28;20046;-83
2023/06/28 15:46:55;;;;;;;1.53;1.00;;;;;;;;;;6200772;28;20045;-84
2023/06/28 15:49:57;;;;;;;3.55;1.92;;;;;;;;;;6176923;28;21923;-83
2023/06/28 15:52:58;;;;;;;3.33;1.40;;;;;;;;;;6207215;28;20512;-84
2023/06/28 15:56:00;;;;;;;3.25;1.45;;;;;;;;;;6211914;28;20427;-84
2023/06/28 15:59:02;;;;;;;1.83;1.13;;;;;;;;;;6188269;28;20084;-86
2023/06/28 16:02:06;;;;;;;1.47;1.10;;;;;;;;;;6189089;28;20464;-83
2023/06/28 16:05:08;;;;;;;3.42;2.13;;;;;;;;;;6193803;28;20054;-81
2023/06/28 16:08:10;;;;;;;2.80;1.13;;;;;;;;;;6218802;28;20058;-82
2023/06/28 16:11:12;;;;;;;2.03;1.30;;;;;;;;;;6217292;28;20050;-85
2023/06/28 16:14:15;;;;;;;2.85;1.10;;;;;;;;;;6204175;28;20050;-85
2023/06/28 16:17:20;;;;;;;3.08;1.42;;;;;;;;;;6208313;28;20532;-84
2023/06/28 16:20:22;;;;;;;2.28;1.23;;;;;;;;;;6197162;28;20056;-85
2023/06/28 16:23:24;;;;;;;1.17;1.07;;;;;;;;;;6196313;28;20046;-84
2023/06/28 16:26:26;;;;;;;1.73;1.10;;;;;;;;;;6218813;28;20467;-83
2023/06/28 16:29:27;;;;;;;3.30;1.40;;;;;;;;;;6207107;28;20065;-82
2023/06/28 16:32:30;;;;;;;1.55;1.20;;;;;;;;;;6230534;28;20453;-83
2023/06/28 16:35:32;;;;;;;1.25;1.15;;;;;;;;;;6219526;28;20431;-83
2023/06/28 16:38:34;;;;;;;2.17;1.30;;;;;;;;;;6216186;28;20042;-82
2023/06/28 16:41:36;;;;;;;2.43;1.70;;;;;;;;;;6208729;28;20050;-82
2023/06/28 16:44:38;;;;;;;2.20;1.50;;;;;;;;;;6211484;28;20089;-81
2023/06/28 16:47:39;;;;;;;2.03;1.23;;;;;;;;;;6211542;28;20051;-81
2023/06/28 16:50:41;;;;;;;2.10;1.30;;;;;;;;;;6219982;28;20791;-83
2023/06/28 16:53:43;;;;;;;1.80;1.20;;;;;;;;;;6203508;28;20460;-87
2023/06/28 16:56:48;;;;;;;1.05;1.00;;;;;;;;;;6226748;28;20026;-84
2023/06/28 16:59:49;;;;;;;5.70;1.67;;;;;;;;;;6205917;28;20046;-82
2023/06/28 17:02:51;;;;;;;2.42;1.30;;;;;;;;;;6219223;28;20066;-80
2023/06/28 17:05:53;;;;;;;1.57;1.47;;;;;;;;;;6219594;28;20806;-80
2023/06/28 17:08:55;;;;;;;1.75;1.30;;;;;;;;;;6199508;28;20046;-80
2023/06/28 17:11:57;;;;;;;2.70;1.60;;;;;;;;;;6191659;28;20045;-80
2023/06/28 17:14:58;;;;;;;3.20;1.67;;;;;;;;;;6193980;28;20042;-80
2023/06/28 17:18:00;;;;;;;2.73;1.53;;;;;;;;;;6189080;28;20061;-81
2023/06/28 17:21:02;;;;;;;2.97;1.65;;;;;;;;;;6212587;28;20069;-81
2023/06/28 17:24:06;;;;;;;3.63;1.80;;;;;;;;;;6186705;28;20522;-82
2023/06/28 17:27:08;;;;;;;1.75;1.65;;;;;;;;;;6179752;28;20441;-82
2023/06/28 17:30:12;;;;;;;3.20;2.00;;;;;;;;;;6207208;28;20054;-83
2023/06/28 17:33:24;;;;;;;2.55;1.70;;;;;;;;;;6211457;28;20046;-83
2023/06/28 17:36:29;;;;;;;4.13;1.90;;;;;;;;;;6176077;28;20045;-83
2023/06/28 17:39:33;;;;;;;3.60;2.25;;;;;;;;;;6197116;28;20047;-82
2023/06/28 17:42:36;;;;;;;5.47;2.53;;;;;;;;;;6208387;28;20057;-83
2023/06/28 17:45:41;;;;;;;4.07;2.20;;;;;;;;;;6209073;28;20121;-83
2023/06/28 17:48:43;;;;;;;3.55;2.50;;;;;;;;;;6191749;28;20058;-84
2023/06/28 17:51:45;;;;;;;3.45;2.50;;;;;;;;;;6207814;28;20054;-83
2023/06/28 17:54:47;;;;;;;4.25;3.00;;;;;;;;;;6187336;28;20045;-83
2023/06/28 17:57:50;;;;;;;3.67;2.75;;;;;;;;;;6192666;28;20045;-83
2023/06/28 18:00:52;;;;;;;3.50;2.92;;;;;;;;;;6170185;28;20116;-83
2023/06/28 18:03:54;;;;;;;3.50;2.88;;;;;;;;;;6212697;28;20058;-84
2023/06/28 18:06:57;;;;;;;4.40;3.05;;;;;;;;;;6204158;28;20046;-84
2023/06/28 18:09:58;;;;;;;3.40;3.10;;;;;;;;;;6215076;28;20404;-83
2023/06/28 18:13:01;;;;;;;3.63;3.05;;;;;;;;;;6197131;28;20128;-83
2023/06/28 18:16:02;;;;;;;;;;;;;;;;;;6185842;28;20626;-84